الصفحة الرئيسية
METAR-TAF:

METAR-TAF

مطار :

Pittsburgh International Airport

بيتسبرغ, بنسيلفانيا, الولايات المتحدة

دائرة عرض: 40-30-14N, خط طول: 080-15-59W, ارتفاع: 366 متر

مراقبة الطقس الحالي

تاريخ ووقت الإصدار 53 دقيقة قبل الساعة 10:51UTC
رياح هادئة
درجة الحرارة 12°درجة مئوية
الرطوبة 88%
ضغط 1023 hPa
الرؤية: 16.1 كم
غيوم متفرقة على ارتفاع 25000 قدم

METAR: KPIT 241051Z COR 00000KT 10SM SCT250 12/10 A3022 RMK AO2 SLP238 T01170100

زمن: 07:44 (11:44 UTC)

توقعات

تاريخ ووقت الإصدار 24 دقيقة قبل الساعة 11:20UTC
التوقعات صالحة من24 الساعة 12 UTC إلى 25 الساعة 18 UTC
ريح 3 عقدةمن اتجاهات متغيرة
الرؤية: 10 كم
سماء صافية

TAF: KPIT 241120Z 2412/2518 VRB03KT P6SM SKC

أرصاد الطقس والتوقعات من أكثر من 4000 مطار (تقارير الطقس للمطار METAR والتنبؤ بالطقس بالمطارTAF).

المحطات المتاحة هي النقط الصفراء والحمراء على الخريطة.

حرك المؤشر فوق النقطة لمعرفة اسم المحطة.

ثم انقر لمعرفة أرصاد وتوقعات الطقس.

لتغيير الخارطة: اضغط على الأزرار الخضراء مع رمز الصليب الأسود للتكبير. على الزر الأخضر مع شرطة للتصغير، أو على الأسهم الخضراء للخرائط المجاورة.


METAR-TAF: